Time;durP1;ratioP1;P1;durP2;ratioP2;P2;SDS_P1;SDS_P2;PMS_P1;PMS_P2;Temp;Humidity;BMP_temperature;BMP_pressure;BME280_temperature;BME280_humidity;BME280_pressure;Samples;Min_cycle;Max_cycle;Signal;HPM_P1;HPM_P2
2021/08/23 00:01:11;;;;;;;27.70;13.70;;;;;;;14.32;73.16;99905.94;115305;1209;22313;-55
2021/08/23 00:03:39;;;;;;;22.90;12.80;;;;;;;14.32;73.12;99903.09;115166;1205;138013;-55
2021/08/23 00:06:07;;;;;;;24.20;12.30;;;;;;;14.33;73.15;99904.02;115259;1211;22301;-55
2021/08/23 00:08:35;;;;;;;27.50;13.20;;;;;;;14.33;73.03;99910.98;115186;1205;138859;-55
2021/08/23 00:11:06;;;;;;;27.60;12.50;;;;;;;14.34;73.10;99903.37;115308;1208;22748;-55
2021/08/23 00:13:34;;;;;;;22.20;12.40;;;;;;;14.34;73.09;99904.73;115162;1205;137785;-56
2021/08/23 00:16:03;;;;;;;23.40;12.60;;;;;;;14.35;73.00;99905.34;115304;1212;22404;-55
2021/08/23 00:18:31;;;;;;;21.10;12.50;;;;;;;14.36;73.27;99903.70;115328;1208;22232;-55
2021/08/23 00:21:10;;;;;;;27.20;11.60;;;;;;;14.35;73.05;99900.19;115159;1209;137436;-55
2021/08/23 00:24:06;;;;;;;21.80;12.30;;;;;;;14.35;73.05;99903.32;115328;1211;22233;-58
2021/08/23 00:26:38;;;;;;;26.40;11.90;;;;;;;14.34;73.11;99904.25;115207;1205;137848;-57
2021/08/23 00:29:06;;;;;;;27.50;12.30;;;;;;;14.34;73.23;99902.98;115322;1216;22294;-57
2021/08/23 00:31:35;;;;;;;21.00;12.30;;;;;;;14.34;73.22;99903.20;115107;1211;137857;-57
2021/08/23 00:34:03;;;;;;;26.70;12.80;;;;;;;14.33;73.24;99900.35;115341;1215;22344;-57
2021/08/23 00:36:31;;;;;;;28.30;13.60;;;;;;;14.34;73.25;99905.17;115239;1210;22326;-57
2021/08/23 00:39:00;;;;;;;25.40;13.80;;;;;;;14.34;73.31;99905.35;115033;1207;137857;-57
2021/08/23 00:41:35;;;;;;;23.90;13.50;;;;;;;14.34;73.43;99905.51;115331;1211;22365;-57
2021/08/23 00:44:04;;;;;;;24.00;12.30;;;;;;;14.33;73.32;99904.52;115217;1208;137674;-57
2021/08/23 00:46:33;;;;;;;23.50;13.30;;;;;;;14.35;73.09;99906.02;115313;1211;23342;-57
2021/08/23 00:49:01;;;;;;;28.00;12.20;;;;;;;14.36;73.05;99907.21;115303;1211;22378;-57
2021/08/23 00:51:31;;;;;;;20.70;12.90;;;;;;;14.35;73.06;99903.76;115111;1207;137763;-57
2021/08/23 00:54:01;;;;;;;23.60;11.80;;;;;;;14.34;73.11;99903.59;115306;1210;23562;-57
2021/08/23 00:56:30;;;;;;;26.80;13.10;;;;;;;14.33;72.93;99905.62;115098;1208;138168;-57
2021/08/23 00:58:58;;;;;;;22.20;12.90;;;;;;;14.30;72.92;99903.48;115254;1216;22755;-57
2021/08/23 01:01:41;;;;;;;28.10;13.30;;;;;;;14.30;72.81;99908.45;115341;1211;22415;-57
2021/08/23 01:04:18;;;;;;;21.10;12.00;;;;;;;14.27;73.00;99910.17;115218;1205;137505;-57
2021/08/23 01:06:46;;;;;;;25.30;12.90;;;;;;;14.24;73.08;99910.61;115304;1211;22394;-57
2021/08/23 01:09:15;;;;;;;25.80;12.90;;;;;;;14.22;73.04;99904.36;115174;1207;138628;-57
2021/08/23 01:11:52;;;;;;;22.90;12.70;;;;;;;14.19;73.15;99901.05;115220;1211;22170;-57
2021/08/23 01:14:22;;;;;;;19.10;12.40;;;;;;;14.15;73.21;99901.76;115125;1205;137886;-57
2021/08/23 01:16:51;;;;;;;24.00;13.20;;;;;;;14.12;73.27;99905.11;115330;1208;22338;-57
2021/08/23 01:19:19;;;;;;;20.80;12.30;;;;;;;14.06;73.39;99900.98;115292;1216;22498;-57
2021/08/23 01:21:49;;;;;;;24.80;12.60;;;;;;;14.04;73.49;99902.19;115013;1208;138736;-57
2021/08/23 01:24:17;;;;;;;17.70;11.70;;;;;;;13.99;73.59;99902.36;115157;1211;22522;-57
2021/08/23 01:26:47;;;;;;;23.70;13.10;;;;;;;13.95;73.58;99903.11;115176;1205;138727;-57
2021/08/23 01:29:35;;;;;;;17.50;11.40;;;;;;;13.91;73.68;99905.34;115165;1216;22431;-57
2021/08/23 01:32:21;;;;;;;18.70;11.20;;;;;;;13.87;73.85;99904.51;115148;1211;138739;-57
2021/08/23 01:34:50;;;;;;;25.90;12.00;;;;;;;13.85;73.83;99900.12;115291;1212;22347;-57
2021/08/23 01:37:18;;;;;;;19.90;11.80;;;;;;;13.82;73.82;99906.05;115426;1208;22308;-57
2021/08/23 01:39:47;;;;;;;22.10;11.70;;;;;;;13.79;73.98;99904.44;115214;1205;137717;-57
2021/08/23 01:42:15;;;;;;;20.50;12.70;;;;;;;13.77;74.16;99901.58;115454;1214;22271;-57
2021/08/23 01:44:43;;;;;;;20.70;12.30;;;;;;;13.74;74.21;99905.13;115288;1209;137882;-57
2021/08/23 01:47:11;;;;;;;20.30;12.50;;;;;;;13.71;74.32;99904.17;115384;1207;23268;-57
2021/08/23 01:49:39;;;;;;;18.80;12.40;;;;;;;13.68;74.34;99905.67;115474;1208;22350;-57
2021/08/23 01:52:07;;;;;;;19.50;11.40;;;;;;;13.66;74.60;99908.08;115192;1205;137512;-57
2021/08/23 01:54:35;;;;;;;20.20;11.20;;;;;;;13.64;74.64;99901.42;115476;1205;22369;-57
2021/08/23 01:57:03;;;;;;;18.70;10.80;;;;;;;13.62;74.75;99899.55;115389;1201;138265;-57
2021/08/23 01:59:31;;;;;;;18.40;11.50;;;;;;;13.59;74.60;99900.14;115478;1208;23244;-57
2021/08/23 02:01:59;;;;;;;26.90;11.80;;;;;;;13.57;74.70;99900.30;115381;1201;138262;-57
2021/08/23 02:04:28;;;;;;;22.00;11.00;;;;;;;13.55;74.76;99897.90;115562;1205;22388;-57
2021/08/23 02:06:56;;;;;;;31.80;13.40;;;;;;;13.53;74.75;99897.46;115444;1208;22367;-57
2021/08/23 02:09:31;;;;;;;18.80;12.10;;;;;;;13.50;74.79;99899.25;115293;1201;137791;-57
2021/08/23 02:12:00;;;;;;;23.10;12.50;;;;;;;13.47;74.96;99898.56;115497;1212;22342;-57
2021/08/23 02:14:29;;;;;;;20.20;11.20;;;;;;;13.44;74.92;99900.36;115336;1201;138107;-57
2021/08/23 02:16:57;;;;;;;23.00;12.50;;;;;;;13.41;75.00;99897.30;115495;1209;22334;-57
2021/08/23 02:19:25;;;;;;;21.50;12.30;;;;;;;13.38;74.95;99895.48;115515;1208;23118;-58
2021/08/23 02:21:54;;;;;;;31.30;13.00;;;;;;;13.35;75.10;99897.27;115412;1201;138299;-57
2021/08/23 02:24:23;;;;;;;23.70;12.50;;;;;;;13.33;75.22;99897.58;115499;1205;23142;-57
2021/08/23 02:26:51;;;;;;;22.70;11.80;;;;;;;13.30;75.40;99897.18;115361;1201;137931;-57
2021/08/23 02:29:20;;;;;;;25.20;14.30;;;;;;;13.30;75.40;99898.11;115491;1212;22344;-57
2021/08/23 02:31:48;;;;;;;27.30;16.80;;;;;;;13.30;75.46;99899.86;115502;1205;22308;-57
2021/08/23 02:34:16;;;;;;;32.10;18.00;;;;;;;13.30;75.64;99902.71;115390;1201;137736;-57
2021/08/23 02:36:44;;;;;;;37.90;19.70;;;;;;;13.30;75.73;99902.21;115466;1212;22152;-57
2021/08/23 02:39:12;;;;;;;46.60;20.60;;;;;;;13.30;75.80;99901.61;115328;1201;137880;-58
2021/08/23 02:41:40;;;;;;;35.90;19.10;;;;;;;13.31;75.85;99902.98;115524;1212;23262;-57
2021/08/23 02:44:08;;;;;;;38.10;20.10;;;;;;;13.31;75.74;99905.29;115366;1201;138542;-57
2021/08/23 02:46:37;;;;;;;40.40;20.00;;;;;;;13.30;75.67;99901.66;115450;1206;23184;-58
2021/08/23 02:49:05;;;;;;;35.70;19.00;;;;;;;13.29;75.73;99902.92;115533;1205;22317;-57
2021/08/23 02:51:34;;;;;;;37.60;19.50;;;;;;;13.28;75.70;99902.75;115349;1202;138232;-57
2021/08/23 02:54:02;;;;;;;43.90;19.10;;;;;;;13.27;75.68;99902.64;115429;1212;22453;-57
2021/08/23 02:56:30;;;;;;;38.20;17.60;;;;;;;13.25;75.87;99903.52;115385;1202;138349;-57
2021/08/23 02:58:58;;;;;;;25.60;16.40;;;;;;;13.23;75.83;99903.40;115519;1205;22406;-58
2021/08/23 03:01:27;;;;;;;27.60;16.10;;;;;;;13.23;75.82;99906.41;115467;1206;22391;-57
2021/08/23 03:03:55;;;;;;;32.70;16.50;;;;;;;13.22;75.95;99907.98;115415;1202;139157;-56
2021/08/23 03:06:23;;;;;;;26.40;14.40;;;;;;;13.21;75.97;99905.19;115429;1205;22356;-57
2021/08/23 03:08:52;;;;;;;23.80;14.90;;;;;;;13.20;76.27;99906.98;115338;1202;138582;-57
2021/08/23 03:11:20;;;;;;;27.50;14.60;;;;;;;13.19;76.25;99907.42;115496;1205;22259;-57
2021/08/23 03:13:50;;;;;;;24.10;15.00;;;;;;;13.19;76.26;99908.13;115460;1208;22462;-57
2021/08/23 03:16:18;;;;;;;23.00;14.50;;;;;;;13.19;76.23;99910.54;115358;1202;139200;-55
2021/08/23 03:18:46;;;;;;;20.70;13.40;;;;;;;13.18;76.41;99911.17;115494;1209;23405;-56
2021/08/23 03:21:14;;;;;;;25.10;14.80;;;;;;;13.20;76.41;99915.91;115342;1201;137836;-55
2021/08/23 03:23:45;;;;;;;26.10;13.90;;;;;;;13.21;76.53;99916.46;115466;1206;22335;-55
2021/08/23 03:26:13;;;;;;;21.10;14.00;;;;;;;13.22;76.61;99921.84;115393;1201;138247;-55
2021/08/23 03:28:41;;;;;;;26.60;14.40;;;;;;;13.23;76.76;99916.15;115469;1205;22303;-55
2021/08/23 03:31:09;;;;;;;26.20;14.10;;;;;;;13.24;77.02;99920.20;115473;1205;23260;-55
2021/08/23 03:33:39;;;;;;;30.20;13.80;;;;;;;13.27;77.25;99918.56;115391;1201;138170;-55
2021/08/23 03:36:07;;;;;;;21.00;13.40;;;;;;;13.28;77.40;99922.95;115499;1209;22269;-55
2021/08/23 03:38:36;;;;;;;22.50;15.40;;;;;;;13.33;77.43;99923.85;115340;1202;138406;-55
2021/08/23 03:41:04;;;;;;;26.60;14.70;;;;;;;13.33;77.62;99921.34;112232;1212;24105;-55
2021/08/23 03:43:33;;;;;;;25.80;14.30;;;;;;;13.39;77.77;99925.65;115446;1212;23084;-55
2021/08/23 03:46:01;;;;;;;23.70;14.40;;;;;;;13.44;77.81;99928.83;115320;1201;138166;-55
2021/08/23 03:48:29;;;;;;;25.50;14.50;;;;;;;13.49;77.79;99927.00;115507;1209;23377;-55
2021/08/23 03:50:57;;;;;;;25.50;15.00;;;;;;;13.55;77.91;99926.81;115312;1202;138598;-55
2021/08/23 03:53:25;;;;;;;30.50;15.30;;;;;;;13.62;77.73;99925.84;115462;1205;22381;-55
2021/08/23 03:55:53;;;;;;;25.60;15.20;;;;;;;13.68;77.76;99927.19;115469;1208;22331;-55
2021/08/23 03:58:21;;;;;;;24.70;15.00;;;;;;;13.74;77.79;99932.02;115430;1202;137845;-55
2021/08/23 04:00:49;;;;;;;24.10;15.00;;;;;;;13.80;77.58;99933.52;115664;1204;22354;-55
2021/08/23 04:03:17;;;;;;;29.00;14.50;;;;;;;13.87;77.67;99933.65;115622;1205;138438;-55
2021/08/23 04:05:45;;;;;;;32.50;16.30;;;;;;;13.93;77.58;99932.79;115668;1205;22337;-55
2021/08/23 04:08:13;;;;;;;36.20;17.40;;;;;;;13.99;77.45;99932.11;115579;1201;139117;-55
2021/08/23 04:10:45;;;;;;;37.90;16.00;;;;;;;14.04;77.51;99933.20;115593;1205;23396;-55
2021/08/23 04:13:15;;;;;;;27.20;15.70;;;;;;;14.10;77.53;99924.35;115610;1209;23239;-56
2021/08/23 04:15:46;;;;;;;22.30;15.70;;;;;;;14.18;77.66;99929.16;115592;1204;138893;-57
2021/08/23 04:18:14;;;;;;;28.30;16.90;;;;;;;14.27;77.60;99925.90;115611;1205;23374;-57
2021/08/23 04:20:42;;;;;;;24.70;16.20;;;;;;;14.38;77.36;99928.51;115512;1200;138515;-57
2021/08/23 04:23:10;;;;;;;24.20;17.10;;;;;;;14.49;77.15;99933.68;115671;1205;22342;-57
2021/08/23 04:25:38;;;;;;;29.30;16.80;;;;;;;14.61;77.02;99930.48;115618;1205;22529;-56
2021/08/23 04:28:06;;;;;;;30.70;16.90;;;;;;;14.73;76.58;99927.97;115509;1203;138895;-55
2021/08/23 04:30:35;;;;;;;22.60;15.90;;;;;;;14.85;76.23;99922.75;115699;1205;22278;-55
2021/08/23 04:33:03;;;;;;;29.10;15.70;;;;;;;15.01;75.83;99920.98;115538;1204;138168;-55
2021/08/23 04:35:31;;;;;;;24.10;15.30;;;;;;;15.19;75.43;99916.70;115634;1203;22322;-55
2021/08/23 04:37:59;;;;;;;28.80;16.50;;;;;;;15.37;74.93;99914.01;115719;1205;22319;-55
2021/08/23 04:40:28;;;;;;;30.30;16.70;;;;;;;15.55;74.41;99916.75;115542;1200;138072;-55
2021/08/23 04:42:56;;;;;;;28.80;16.40;;;;;;;15.74;73.89;99916.30;115723;1210;22292;-55
2021/08/23 04:45:25;;;;;;;26.80;16.30;;;;;;;15.93;73.47;99916.64;115612;1201;139203;-55
2021/08/23 04:47:54;;;;;;;27.70;15.20;;;;;;;16.16;72.90;99918.04;115592;1204;22318;-55
2021/08/23 04:50:23;;;;;;;25.90;14.70;;;;;;;16.40;72.12;99915.06;115496;1200;138650;-55
2021/08/23 04:52:51;;;;;;;18.90;14.40;;;;;;;16.64;71.51;99911.09;115612;1205;22943;-55
2021/08/23 04:55:19;;;;;;;26.80;14.80;;;;;;;16.89;70.86;99912.25;115654;1205;22135;-56
2021/08/23 04:57:59;;;;;;;29.70;15.70;;;;;;;17.17;70.00;99910.96;115553;1200;138040;-56
2021/08/23 05:00:28;;;;;;;28.80;14.50;;;;;;;17.38;69.28;99910.90;115723;1202;22312;-57
2021/08/23 05:02:57;;;;;;;24.70;15.50;;;;;;;17.59;68.92;99909.66;115554;1201;138515;-56
2021/08/23 05:05:25;;;;;;;23.20;14.70;;;;;;;17.79;68.28;99914.23;115621;1205;22332;-57
2021/08/23 05:07:54;;;;;;;22.30;13.20;;;;;;;18.03;67.81;99914.06;115599;1205;23098;-56
2021/08/23 05:10:23;;;;;;;25.10;13.90;;;;;;;18.26;67.05;99905.70;115529;1199;137801;-55
2021/08/23 05:12:55;;;;;;;25.60;13.60;;;;;;;18.47;66.35;99910.61;115678;1208;24357;-56
2021/08/23 05:15:23;;;;;;;29.50;14.00;;;;;;;18.66;65.79;99913.14;115548;1200;138060;-56
2021/08/23 05:17:52;;;;;;;27.90;14.30;;;;;;;18.89;65.56;99913.64;115659;1205;22357;-56
2021/08/23 05:20:20;;;;;;;22.40;13.70;;;;;;;19.16;65.00;99910.43;115533;1201;138221;-56
2021/08/23 05:22:48;;;;;;;19.20;13.10;;;;;;;19.40;64.19;99912.50;115579;1206;23268;-57
2021/08/23 05:25:17;;;;;;;23.60;14.00;;;;;;;19.60;63.61;99911.20;115619;1208;23103;-56
2021/08/23 05:27:45;;;;;;;31.10;14.30;;;;;;;19.79;62.94;99914.21;115497;1201;138413;-57
2021/08/23 05:30:13;;;;;;;28.70;13.30;;;;;;;19.98;62.33;99913.20;115663;1204;22128;-56
2021/08/23 05:32:41;;;;;;;22.60;13.40;;;;;;;20.21;61.67;99913.05;115488;1199;138709;-57
2021/08/23 05:35:10;;;;;;;26.00;14.40;;;;;;;20.43;60.77;99917.76;115606;1205;22290;-56
2021/08/23 05:37:38;;;;;;;22.10;14.40;;;;;;;20.59;60.36;99913.67;115680;1204;22276;-56
2021/08/23 05:40:07;;;;;;;23.90;13.50;;;;;;;20.76;59.92;99911.19;113758;1198;137755;-56
2021/08/23 05:42:34;;;;;;;21.40;12.90;;;;;;;20.93;59.60;99913.02;111510;1204;24215;-56
2021/08/23 05:45:03;;;;;;;20.90;13.40;;;;;;;21.09;59.40;99916.70;111360;1199;137757;-56
2021/08/23 05:47:31;;;;;;;18.70;12.00;;;;;;;21.16;58.44;99919.77;111415;1203;25093;-56
2021/08/23 05:49:59;;;;;;;20.50;11.50;;;;;;;21.13;57.88;99914.23;111496;1205;24081;-56
2021/08/23 05:52:27;;;;;;;16.80;11.60;;;;;;;21.07;57.63;99911.44;111368;1199;137456;-56
2021/08/23 05:54:55;;;;;;;15.70;11.80;;;;;;;20.96;57.88;99912.61;115512;1204;22287;-57
2021/08/23 05:57:26;;;;;;;19.60;11.50;;;;;;;20.84;57.37;99908.48;115500;1199;137313;-56
2021/08/23 05:59:55;;;;;;;23.00;11.40;;;;;;;20.70;57.32;99907.86;115650;1206;22300;-56
2021/08/23 06:02:23;;;;;;;20.30;11.20;;;;;;;20.53;57.45;99913.60;115529;1199;137415;-57
2021/08/23 06:04:52;;;;;;;16.00;10.40;;;;;;;20.33;57.88;99912.17;115586;1204;22355;-56
2021/08/23 06:07:20;;;;;;;15.20;11.10;;;;;;;20.17;58.49;99912.49;115704;1203;22407;-56
2021/08/23 06:09:48;;;;;;;17.10;11.50;;;;;;;20.06;58.92;99911.95;115504;1199;137525;-56
2021/08/23 06:12:16;;;;;;;16.70;10.00;;;;;;;19.96;58.89;99914.51;115488;1209;23380;-57
2021/08/23 06:14:44;;;;;;;18.80;9.50;;;;;;;19.85;59.04;99912.61;115536;1199;137742;-56
2021/08/23 06:17:12;;;;;;;18.50;10.80;;;;;;;19.74;59.27;99905.02;115574;1203;22358;-57
2021/08/23 06:19:42;;;;;;;19.20;10.00;;;;;;;19.65;59.68;99904.55;115623;1204;23251;-56
2021/08/23 06:22:09;;;;;;;17.30;10.00;;;;;;;19.62;59.98;99901.93;115530;1199;138254;-57
2021/08/23 06:24:37;;;;;;;17.30;9.70;;;;;;;19.64;60.19;99905.18;115579;1204;22328;-56
2021/08/23 06:27:05;;;;;;;15.30;9.70;;;;;;;19.64;60.10;99908.21;115550;1201;137278;-58
2021/08/23 06:29:33;;;;;;;18.80;9.90;;;;;;;19.64;59.89;99907.11;115686;1204;22344;-58
2021/08/23 06:32:03;;;;;;;11.80;8.30;;;;;;;19.63;60.24;99901.05;115520;1204;22255;-58
2021/08/23 06:34:31;;;;;;;11.30;6.90;;;;;;;19.65;59.96;99902.55;115518;1200;138247;-57
2021/08/23 06:37:00;;;;;;;14.90;7.40;;;;;;;19.69;59.93;99900.17;115572;1203;22392;-57
2021/08/23 06:39:28;;;;;;;10.50;7.20;;;;;;;19.75;59.32;99897.26;115536;1202;137953;-56
2021/08/23 06:41:57;;;;;;;19.00;8.30;;;;;;;19.83;59.30;99902.02;115690;1205;23086;-60
2021/08/23 06:44:25;;;;;;;14.80;7.70;;;;;;;19.91;59.18;99900.30;115583;1199;137307;-59
2021/08/23 06:46:54;;;;;;;16.10;8.30;;;;;;;19.97;58.86;99896.33;115613;1204;22441;-60
2021/08/23 06:49:22;;;;;;;18.80;8.10;;;;;;;20.04;58.65;99891.98;115574;1204;23291;-59
2021/08/23 06:51:50;;;;;;;17.60;9.10;;;;;;;20.11;58.87;99897.34;115484;1199;137723;-59
2021/08/23 06:54:18;;;;;;;12.00;6.90;;;;;;;20.18;58.42;99898.97;115625;1204;22360;-59
2021/08/23 06:56:47;;;;;;;9.80;6.10;;;;;;;20.22;57.21;99896.64;115493;1201;137467;-59
2021/08/23 06:59:16;;;;;;;10.70;6.40;;;;;;;20.27;57.47;99896.59;115607;1204;22365;-57
2021/08/23 07:01:44;;;;;;;15.20;8.20;;;;;;;20.33;57.28;99895.67;115523;1209;23398;-57
2021/08/23 07:04:12;;;;;;;10.80;7.00;;;;;;;20.41;56.86;99895.17;115457;1200;137738;-58
2021/08/23 07:06:41;;;;;;;16.00;8.20;;;;;;;20.46;56.89;99889.69;115663;1204;22293;-58
2021/08/23 07:09:28;;;;;;;17.80;8.10;;;;;;;20.52;57.46;99889.35;115519;1201;137621;-57
2021/08/23 07:11:57;;;;;;;14.50;8.10;;;;;;;20.57;57.68;99889.30;115643;1203;22341;-57
2021/08/23 07:14:25;;;;;;;19.20;9.10;;;;;;;20.64;57.99;99894.33;115455;1201;137343;-58
2021/08/23 07:16:53;;;;;;;13.60;8.40;;;;;;;20.72;58.52;99897.23;115612;1209;23226;-58
2021/08/23 07:19:21;;;;;;;17.80;10.40;;;;;;;20.80;58.53;99896.38;115645;1204;22369;-57
2021/08/23 07:21:49;;;;;;;13.80;9.00;;;;;;;20.89;58.53;99897.71;115548;1201;137259;-58
2021/08/23 07:24:18;;;;;;;12.10;6.90;;;;;;;20.97;58.00;99896.61;115556;1205;22381;-58
2021/08/23 07:26:46;;;;;;;13.60;7.20;;;;;;;21.03;57.67;99900.17;115467;1200;137326;-58
2021/08/23 07:29:15;;;;;;;14.90;6.80;;;;;;;21.10;57.08;99899.41;115663;1204;22362;-58
2021/08/23 07:31:43;;;;;;;15.50;6.10;;;;;;;21.18;56.93;99897.33;115655;1209;22348;-58
2021/08/23 07:34:11;;;;;;;10.40;7.20;;;;;;;21.26;56.91;99898.52;115516;1201;137112;-58
2021/08/23 07:36:40;;;;;;;14.80;6.40;;;;;;;21.34;56.30;99897.31;115558;1204;22216;-58
2021/08/23 07:39:08;;;;;;;12.10;6.80;;;;;;;21.39;55.63;99907.63;115483;1201;137453;-56
2021/08/23 07:41:37;;;;;;;15.50;6.70;;;;;;;21.41;55.65;99912.99;115619;1195;23095;-57
2021/08/23 07:44:05;;;;;;;13.00;6.70;;;;;;;21.46;55.81;99917.35;115707;1204;23343;-57
2021/08/23 07:46:33;;;;;;;21.80;8.40;;;;;;;21.53;56.03;99916.39;115393;1201;137458;-58
2021/08/23 07:49:02;;;;;;;12.60;7.20;;;;;;;21.59;56.06;99919.81;115642;1202;23480;-57
2021/08/23 07:51:30;;;;;;;13.40;7.70;;;;;;;21.69;55.79;99928.50;115565;1201;137365;-57
2021/08/23 07:53:59;;;;;;;12.20;7.40;;;;;;;21.76;55.90;99924.76;115636;1204;22179;-58
2021/08/23 07:56:29;;;;;;;10.50;6.80;;;;;;;21.83;56.16;99923.20;115460;1199;138592;-58
2021/08/23 07:58:57;;;;;;;14.90;7.20;;;;;;;21.90;55.13;99918.70;115534;1204;22356;-58
2021/08/23 08:01:27;;;;;;;11.40;6.10;;;;;;;21.94;54.45;99918.77;115684;1203;22322;-58
2021/08/23 08:03:56;;;;;;;8.70;5.80;;;;;;;21.96;54.09;99914.50;115497;1200;137454;-58
2021/08/23 08:06:24;;;;;;;13.40;5.50;;;;;;;21.99;53.95;99913.42;115667;1207;22291;-58
2021/08/23 08:08:52;;;;;;;14.40;5.40;;;;;;;22.05;53.35;99919.75;115487;1197;137417;-58
2021/08/23 08:11:20;;;;;;;10.40;5.40;;;;;;;22.11;53.63;99922.71;115676;1204;22281;-58
2021/08/23 08:13:48;;;;;;;12.50;4.90;;;;;;;22.16;52.95;99923.13;115615;1204;22197;-58
2021/08/23 08:16:17;;;;;;;9.10;4.60;;;;;;;22.21;52.76;99922.31;115446;1199;137547;-58
2021/08/23 08:18:46;;;;;;;7.30;4.70;;;;;;;22.28;53.12;99925.87;115668;1203;23066;-58
2021/08/23 08:21:15;;;;;;;6.80;5.00;;;;;;;22.34;53.03;99927.05;115610;1199;137521;-58
2021/08/23 08:23:43;;;;;;;9.90;5.50;;;;;;;22.41;52.67;99927.27;115665;1204;23362;-58
2021/08/23 08:26:11;;;;;;;18.80;5.30;;;;;;;22.46;52.63;99928.50;115643;1204;22319;-57
2021/08/23 08:28:39;;;;;;;6.80;4.70;;;;;;;22.52;52.06;99929.16;115612;1199;137021;-57
2021/08/23 08:31:07;;;;;;;8.10;5.00;;;;;;;22.58;51.24;99929.43;115564;1208;23324;-58
2021/08/23 08:33:37;;;;;;;8.00;4.50;;;;;;;22.61;51.03;99935.52;115529;1200;137148;-57
2021/08/23 08:36:05;;;;;;;7.20;4.10;;;;;;;22.63;50.42;99932.64;115568;1204;22297;-58
2021/08/23 08:38:33;;;;;;;12.10;4.10;;;;;;;22.60;49.98;99928.10;115515;1201;138475;-58
2021/08/23 08:41:01;;;;;;;6.20;4.40;;;;;;;22.59;50.53;99926.63;115531;1204;23069;-58
2021/08/23 08:43:29;;;;;;;6.50;5.30;;;;;;;22.60;50.88;99923.17;115563;1211;22374;-58
2021/08/23 08:45:58;;;;;;;7.20;4.70;;;;;;;22.61;51.41;99920.84;115451;1199;137137;-58
2021/08/23 08:48:26;;;;;;;8.50;4.50;;;;;;;22.63;51.24;99925.02;115533;1204;22246;-57
2021/08/23 08:50:54;;;;;;;6.50;3.80;;;;;;;22.63;51.17;99918.07;115424;1201;137392;-58
2021/08/23 08:53:22;;;;;;;7.80;4.90;;;;;;;22.67;50.98;99918.31;115597;1204;22251;-58
2021/08/23 08:55:51;;;;;;;13.60;4.40;;;;;;;22.71;50.77;99914.29;115644;1203;22329;-58
2021/08/23 08:58:23;;;;;;;6.90;4.70;;;;;;;22.77;50.30;99910.90;115607;1202;137661;-57
2021/08/23 09:00:51;;;;;;;10.60;4.90;;;;;;;22.83;50.29;99905.07;115593;1203;22220;-57
2021/08/23 09:03:27;;;;;;;5.50;4.40;;;;;;;22.89;49.74;99912.83;115573;1201;137138;-58
2021/08/23 09:06:06;;;;;;;8.80;4.90;;;;;;;22.96;49.49;99915.86;115731;1204;22303;-57
2021/08/23 09:08:48;;;;;;;6.80;4.40;;;;;;;23.00;48.68;99905.42;115473;1201;137459;-57
2021/08/23 09:11:18;;;;;;;10.00;5.10;;;;;;;23.04;48.90;99900.98;115648;1204;23068;-58
2021/08/23 09:14:03;;;;;;;7.20;5.10;;;;;;;23.04;48.28;99897.74;115685;1203;22381;-57
2021/08/23 09:16:39;;;;;;;;;;;;;;;22.97;48.34;99893.52;115456;1204;136630;-58
2021/08/23 09:19:07;;;;;;;7.80;4.80;;;;;;;22.90;48.76;99899.48;115664;1203;22322;-58
2021/08/23 09:21:40;;;;;;;7.60;4.90;;;;;;;22.85;48.43;99905.11;115435;1201;138332;-58
2021/08/23 09:24:18;;;;;;;10.90;4.90;;;;;;;22.77;48.78;99897.45;115740;1207;22253;-57
2021/08/23 09:26:46;;;;;;;6.10;4.90;;;;;;;22.70;48.56;99897.98;115568;1199;137144;-57
2021/08/23 09:29:15;;;;;;;5.50;4.90;;;;;;;22.65;48.58;99905.12;115684;1203;22520;-57
2021/08/23 09:31:44;;;;;;;7.90;5.40;;;;;;;22.60;49.04;99901.73;115731;1204;22274;-57
2021/08/23 09:34:14;;;;;;;7.80;5.90;;;;;;;22.56;48.49;99899.58;115428;1200;136948;-58
2021/08/23 09:36:42;;;;;;;10.30;5.60;;;;;;;22.50;49.23;99907.02;115601;1210;22366;-57
2021/08/23 09:39:15;;;;;;;6.90;5.10;;;;;;;22.50;50.02;99903.73;115507;1201;137662;-56
2021/08/23 09:41:47;;;;;;;9.80;4.90;;;;;;;22.51;49.44;99899.25;115695;1203;22304;-56
2021/08/23 09:44:16;;;;;;;7.80;5.00;;;;;;;22.52;50.01;99894.01;115506;1204;22403;-57
2021/08/23 09:46:44;;;;;;;6.50;4.80;;;;;;;22.55;50.19;99892.87;115443;1199;138753;-57
2021/08/23 09:49:13;;;;;;;7.20;5.00;;;;;;;22.59;50.20;99894.02;115547;1204;22302;-56
2021/08/23 09:51:44;;;;;;;8.90;4.70;;;;;;;22.64;50.00;99888.36;115553;1199;138030;-56
2021/08/23 09:54:16;;;;;;;7.90;5.30;;;;;;;22.72;49.79;99886.54;115590;1204;22209;-57
2021/08/23 09:56:55;;;;;;;9.00;5.20;;;;;;;22.78;49.49;99885.08;115632;1202;137613;-56
2021/08/23 09:59:28;;;;;;;9.10;5.60;;;;;;;22.84;49.44;99881.02;115667;1209;22384;-56
2021/08/23 10:01:57;;;;;;;6.90;4.30;;;;;;;22.91;48.67;99880.91;115646;1203;22415;-56
2021/08/23 10:04:25;;;;;;;6.50;5.20;;;;;;;22.97;48.43;99875.45;115603;1201;138039;-58
2021/08/23 10:06:54;;;;;;;7.90;5.30;;;;;;;23.02;47.16;99872.31;115478;1204;22332;-56
2021/08/23 10:09:23;;;;;;;5.90;4.90;;;;;;;23.03;47.08;99872.44;115442;1201;137348;-56
2021/08/23 10:11:56;;;;;;;6.90;5.10;;;;;;;23.05;47.46;99866.73;115681;1204;22370;-56
2021/08/23 10:14:24;;;;;;;7.40;5.60;;;;;;;23.08;47.43;99868.23;115518;1201;138813;-56
2021/08/23 10:16:52;;;;;;;6.60;4.30;;;;;;;23.12;47.75;99858.78;115641;1204;22353;-56
2021/08/23 10:19:21;;;;;;;11.90;5.50;;;;;;;23.21;48.41;99859.25;115726;1203;22355;-57
2021/08/23 10:21:49;;;;;;;7.10;5.10;;;;;;;23.31;48.72;99855.67;115598;1200;137270;-57
2021/08/23 10:24:23;;;;;;;7.10;5.10;;;;;;;23.42;48.59;99858.81;115546;1204;22430;-57
2021/08/23 10:26:51;;;;;;;6.40;4.90;;;;;;;23.52;47.10;99861.39;115481;1201;137187;-57
2021/08/23 10:29:19;;;;;;;6.30;4.60;;;;;;;23.58;47.23;99865.47;115658;1202;22314;-57
2021/08/23 10:31:47;;;;;;;7.80;5.40;;;;;;;23.64;47.16;99863.02;115618;1204;22100;-58
2021/08/23 10:34:19;;;;;;;18.20;5.60;;;;;;;23.71;46.85;99867.09;115594;1200;137026;-58
2021/08/23 10:36:48;;;;;;;8.80;4.90;;;;;;;23.77;47.18;99865.85;115697;1204;23564;-58
2021/08/23 10:39:24;;;;;;;6.30;4.50;;;;;;;23.84;46.96;99866.11;115521;1201;137186;-57
2021/08/23 10:41:53;;;;;;;18.30;5.10;;;;;;;23.89;45.99;99860.98;115702;1203;22334;-57
2021/08/23 10:44:31;;;;;;;9.80;4.40;;;;;;;23.91;45.96;99865.69;115560;1202;137141;-58
2021/08/23 10:47:08;;;;;;;5.70;4.20;;;;;;;23.93;46.10;99863.91;115544;1204;22224;-58
2021/08/23 10:49:43;;;;;;;9.10;5.10;;;;;;;23.93;46.15;99863.61;115697;1202;22308;-57
2021/08/23 10:52:12;;;;;;;6.30;4.60;;;;;;;23.93;46.39;99864.72;115470;1200;136879;-57
2021/08/23 10:54:42;;;;;;;8.50;4.60;;;;;;;23.94;46.51;99859.90;115518;1204;22434;-57
2021/08/23 10:57:11;;;;;;;7.00;4.00;;;;;;;23.95;46.65;99854.91;115475;1200;137451;-57
2021/08/23 10:59:47;;;;;;;9.30;4.60;;;;;;;23.94;46.36;99856.09;115725;1203;23479;-57
2021/08/23 11:02:35;;;;;;;8.50;4.30;;;;;;;23.94;45.77;99863.08;115721;1202;22214;-57
2021/08/23 11:05:09;;;;;;;7.70;4.80;;;;;;;23.93;46.57;99858.73;115609;1204;138198;-57
2021/08/23 11:07:40;;;;;;;5.40;4.60;;;;;;;23.93;46.98;99857.17;115480;1204;22201;-58
2021/08/23 11:10:13;;;;;;;5.70;4.30;;;;;;;23.95;46.30;99856.77;115566;1199;137451;-57
2021/08/23 11:12:54;;;;;;;4.60;3.80;;;;;;;23.96;44.95;99856.55;115605;1209;22314;-57
2021/08/23 11:15:32;;;;;;;6.00;4.40;;;;;;;23.95;45.04;99856.83;115644;1201;140272;-57
2021/08/23 11:18:05;;;;;;;4.60;4.20;;;;;;;23.98;45.46;99854.55;115708;1204;22332;-57
2021/08/23 11:20:35;;;;;;;5.90;4.40;;;;;;;24.01;45.01;99852.51;115529;1208;22384;-57
2021/08/23 11:23:05;;;;;;;9.10;4.20;;;;;;;24.02;44.46;99849.13;115428;1201;139416;-57